Time;durP1;ratioP1;P1;durP2;ratioP2;P2;SDS_P1;SDS_P2;PMS_P1;PMS_P2;Temp;Humidity;BMP_temperature;BMP_pressure;BME280_temperature;BME280_humidity;BME280_pressure;Samples;Min_cycle;Max_cycle;Signal;HPM_P1;HPM_P2
2023/05/13 00:01:14;;;;;;;7.28;6.53;;;;;;;15.88;66.26;101781.44;3610451;39;20103;-69
2023/05/13 00:03:40;;;;;;;6.95;6.25;;;;;;;15.86;65.28;101777.09;3612123;39;20100;-69
2023/05/13 00:06:06;;;;;;;8.00;6.65;;;;;;;15.89;66.05;101780.50;3611146;39;20308;-68
2023/05/13 00:08:32;;;;;;;6.97;6.28;;;;;;;15.88;65.21;101778.72;3614794;39;20055;-69
2023/05/13 00:10:57;;;;;;;7.22;5.97;;;;;;;15.88;65.78;101781.44;3617472;39;20392;-69
2023/05/13 00:13:23;;;;;;;7.97;7.18;;;;;;;15.85;66.02;101775.38;3612166;39;20067;-68
2023/05/13 00:15:49;;;;;;;6.57;6.03;;;;;;;15.84;65.34;101779.94;3613006;39;20425;-69
2023/05/13 00:18:14;;;;;;;6.65;6.05;;;;;;;15.82;64.83;101776.44;3612416;39;20060;-67
2023/05/13 00:20:40;;;;;;;7.80;5.88;;;;;;;15.79;65.84;101773.94;3611427;39;20078;-68
2023/05/13 00:23:06;;;;;;;6.90;5.78;;;;;;;15.76;65.19;101775.03;3611583;39;20046;-68
2023/05/13 00:25:32;;;;;;;6.60;6.00;;;;;;;15.74;65.39;101773.41;3606348;39;20074;-68
2023/05/13 00:27:58;;;;;;;6.60;5.90;;;;;;;15.69;64.99;101775.53;3610012;39;20058;-68
2023/05/13 00:30:24;;;;;;;6.40;5.90;;;;;;;15.66;65.29;101775.72;3610165;39;20063;-68
2023/05/13 00:32:50;;;;;;;8.60;5.90;;;;;;;15.53;65.55;101752.16;3611352;39;20558;-68
2023/05/13 00:35:16;;;;;;;6.95;6.22;;;;;;;15.61;64.83;101772.47;3612372;39;20039;-68
2023/05/13 00:37:42;;;;;;;7.28;5.63;;;;;;;15.56;65.64;101770.91;3612207;39;20042;-67
2023/05/13 00:40:20;;;;;;;7.47;5.82;;;;;;;15.53;64.75;101775.69;3613037;39;20065;-68
2023/05/13 00:42:45;;;;;;;6.85;6.25;;;;;;;15.51;64.98;101775.81;3615387;39;20098;-68
2023/05/13 00:45:11;;;;;;;7.07;5.88;;;;;;;15.47;65.14;101776.97;3615392;39;20051;-68
2023/05/13 00:47:39;;;;;;;6.55;5.93;;;;;;;15.43;65.21;101778.16;3611379;39;20090;-68
2023/05/13 00:50:08;;;;;;;6.72;6.13;;;;;;;15.45;65.09;101778.06;3612334;39;20054;-68
2023/05/13 00:52:36;;;;;;;6.85;6.22;;;;;;;15.41;65.30;101776.50;3610540;39;20078;-68
2023/05/13 00:55:02;;;;;;;7.40;6.07;;;;;;;15.39;64.95;101784.75;3610994;39;20286;-68
2023/05/13 00:57:29;;;;;;;8.70;5.85;;;;;;;15.35;64.92;101785.94;3610698;39;20059;-69
2023/05/13 00:59:55;;;;;;;7.93;6.20;;;;;;;15.22;65.64;101766.03;3612631;39;20062;-68
2023/05/13 01:02:33;;;;;;;8.55;5.95;;;;;;;15.27;65.97;101783.72;3613703;39;20210;-69
2023/05/13 01:05:18;;;;;;;8.35;5.68;;;;;;;15.24;66.12;101777.63;3612344;39;20047;-69
2023/05/13 01:08:27;;;;;;;8.57;6.30;;;;;;;15.17;66.22;101782.59;3611884;39;20061;-69
2023/05/13 01:11:02;;;;;;;6.57;5.60;;;;;;;15.13;65.81;101778.38;3612301;39;20047;-68
2023/05/13 01:13:35;;;;;;;6.25;5.65;;;;;;;15.12;65.67;101783.88;3611036;39;20047;-68
2023/05/13 01:16:33;;;;;;;6.45;5.85;;;;;;;15.07;65.40;101778.75;3611836;39;20302;-68
2023/05/13 01:19:30;;;;;;;8.32;5.93;;;;;;;14.33;66.41;101658.13;3610918;39;20059;-68
2023/05/13 01:21:55;;;;;;;6.15;5.65;;;;;;;15.00;66.04;101770.19;3610647;39;20054;-68
2023/05/13 01:24:21;;;;;;;6.95;5.82;;;;;;;14.96;66.15;101771.31;3611599;39;20062;-68
2023/05/13 01:26:48;;;;;;;7.18;5.72;;;;;;;14.95;66.04;101775.00;3611983;39;20078;-68
2023/05/13 01:29:14;;;;;;;6.72;6.03;;;;;;;14.92;65.64;101768.94;3611607;39;20265;-69
2023/05/13 01:31:41;;;;;;;6.22;5.63;;;;;;;14.88;65.70;101778.22;3611543;39;20068;-69
2023/05/13 01:34:10;;;;;;;7.82;5.97;;;;;;;14.85;65.22;101773.88;3610601;39;20062;-69
2023/05/13 01:36:38;;;;;;;7.63;5.80;;;;;;;14.27;65.65;101689.16;3611924;39;20407;-69
2023/05/13 01:39:07;;;;;;;6.18;5.63;;;;;;;14.76;66.41;101774.47;3610387;39;20047;-69
2023/05/13 01:41:32;;;;;;;6.68;5.88;;;;;;;14.73;66.29;101778.22;3611462;39;20055;-69
2023/05/13 01:43:58;;;;;;;6.03;5.43;;;;;;;14.71;66.00;101773.88;3612188;39;20216;-69
2023/05/13 01:46:24;;;;;;;7.43;5.68;;;;;;;14.66;65.93;101778.75;3605347;39;20067;-69
2023/05/13 01:48:49;;;;;;;6.55;5.78;;;;;;;14.57;66.07;101759.41;3606061;39;20061;-70
2023/05/13 01:51:15;;;;;;;8.35;5.88;;;;;;;14.59;65.92;101779.13;3610842;39;20075;-69
2023/05/13 01:53:40;;;;;;;7.50;5.82;;;;;;;14.48;66.28;101765.34;3611931;39;20081;-69
2023/05/13 01:56:09;;;;;;;6.97;6.20;;;;;;;14.54;66.73;101778.53;3609999;39;20397;-68
2023/05/13 01:58:35;;;;;;;7.20;6.20;;;;;;;14.22;66.65;101737.25;3600576;39;20568;-69
2023/05/13 02:01:02;;;;;;;8.75;6.00;;;;;;;14.44;66.52;101782.75;3612410;39;20057;-69
2023/05/13 02:03:28;;;;;;;8.15;6.30;;;;;;;14.39;66.31;101774.03;3612046;39;20375;-70
2023/05/13 02:05:54;;;;;;;6.80;6.00;;;;;;;14.10;66.00;101728.06;3610972;39;20592;-67
2023/05/13 02:08:24;;;;;;;6.30;5.57;;;;;;;14.38;66.27;101773.19;3610712;39;20077;-68
2023/05/13 02:10:57;;;;;;;6.75;6.05;;;;;;;14.28;66.22;101757.63;3607286;39;20058;-68
2023/05/13 02:13:24;;;;;;;;;;;;;;;14.35;66.07;101775.22;3610713;39;20062;-67
2023/05/13 02:15:49;;;;;;;6.57;5.88;;;;;;;14.34;66.84;101778.91;3609984;39;21381;-67
2023/05/13 02:18:15;;;;;;;10.65;6.20;;;;;;;14.32;66.34;101780.81;3611527;39;20184;-68
2023/05/13 02:20:41;;;;;;;6.70;6.00;;;;;;;14.30;65.77;101777.31;3611597;39;20058;-68
2023/05/13 02:23:06;;;;;;;7.30;6.50;;;;;;;14.26;66.76;101781.19;3611315;39;20061;-68
2023/05/13 02:25:33;;;;;;;8.48;6.60;;;;;;;14.00;66.19;101742.25;3610968;39;20333;-69
2023/05/13 02:27:58;;;;;;;10.23;6.65;;;;;;;14.14;66.26;101772.91;3611848;39;20067;-70
2023/05/13 02:30:26;;;;;;;8.68;6.50;;;;;;;14.07;66.75;101758.00;3610470;39;20094;-69
2023/05/13 02:32:56;;;;;;;8.95;6.68;;;;;;;14.13;66.53;101787.34;3609794;39;20053;-68
2023/05/13 02:35:23;;;;;;;8.75;6.22;;;;;;;14.11;66.97;101783.00;3609442;39;20286;-68
2023/05/13 02:37:49;;;;;;;7.30;6.60;;;;;;;14.09;66.92;101777.69;3610308;39;20054;-67
2023/05/13 02:40:15;;;;;;;8.52;7.18;;;;;;;14.05;66.84;101781.56;3611428;39;20062;-69
2023/05/13 02:42:42;;;;;;;7.93;6.75;;;;;;;14.01;67.50;101777.28;3610550;39;20697;-68
2023/05/13 02:45:09;;;;;;;9.27;7.00;;;;;;;13.95;66.69;101772.25;3611586;39;20089;-68
2023/05/13 02:47:35;;;;;;;8.88;6.88;;;;;;;13.93;66.93;101772.38;3612301;39;20055;-68
2023/05/13 02:50:00;;;;;;;8.10;6.95;;;;;;;13.91;66.87;101776.97;3611550;39;20050;-68
2023/05/13 02:52:26;;;;;;;8.13;6.88;;;;;;;13.89;66.53;101770.81;3609484;39;20059;-68
2023/05/13 02:54:51;;;;;;;7.82;7.03;;;;;;;13.82;67.63;101765.84;3611028;39;20042;-69
2023/05/13 02:57:17;;;;;;;7.18;6.35;;;;;;;13.41;66.68;101702.53;3610954;39;20065;-68
2023/05/13 02:59:43;;;;;;;6.65;6.00;;;;;;;13.72;67.34;101749.34;3612219;39;20050;-68
2023/05/13 03:02:09;;;;;;;9.93;6.90;;;;;;;13.76;67.68;101771.63;3609648;39;20050;-68
2023/05/13 03:04:35;;;;;;;10.85;7.10;;;;;;;13.68;67.58;101769.41;3610270;39;20046;-68
2023/05/13 03:07:00;;;;;;;7.65;6.85;;;;;;;13.61;67.75;101762.63;3610015;39;20078;-68
2023/05/13 03:09:26;;;;;;;8.48;6.85;;;;;;;13.62;67.60;101770.63;3610673;39;20062;-68
2023/05/13 03:11:52;;;;;;;7.60;6.90;;;;;;;13.60;67.81;101768.97;3611153;39;20069;-68
2023/05/13 03:14:17;;;;;;;12.32;7.30;;;;;;;13.53;67.91;101768.47;3613280;39;20444;-68
2023/05/13 03:16:43;;;;;;;8.93;7.00;;;;;;;13.53;67.60;101767.59;3613251;39;20058;-68
2023/05/13 03:19:09;;;;;;;6.88;6.18;;;;;;;13.47;67.89;101769.69;3612472;39;20119;-68
2023/05/13 03:21:35;;;;;;;8.20;6.85;;;;;;;13.45;68.17;101773.47;3610550;39;20329;-68
2023/05/13 03:24:01;;;;;;;7.65;6.70;;;;;;;13.43;68.79;101778.94;3610730;39;20364;-68
2023/05/13 03:26:26;;;;;;;9.63;6.50;;;;;;;13.40;68.37;101775.56;3610474;39;20059;-69
2023/05/13 03:28:52;;;;;;;9.75;7.30;;;;;;;13.37;68.47;101775.75;3609183;39;20572;-68
2023/05/13 03:31:18;;;;;;;8.00;7.20;;;;;;;13.33;68.46;101774.19;3609826;39;20054;-68
2023/05/13 03:33:43;;;;;;;7.63;6.82;;;;;;;13.28;68.56;101785.25;3611664;39;20066;-67
2023/05/13 03:36:09;;;;;;;9.05;7.80;;;;;;;13.26;68.92;101784.47;3615505;39;20061;-67
2023/05/13 03:38:34;;;;;;;8.38;7.57;;;;;;;13.12;69.07;101766.31;3615351;39;20265;-68
2023/05/13 03:41:00;;;;;;;8.07;7.38;;;;;;;13.15;68.43;101782.34;3616670;39;20059;-68
2023/05/13 03:43:26;;;;;;;7.15;6.53;;;;;;;13.12;69.51;101787.91;3613172;39;20055;-68
2023/05/13 03:45:51;;;;;;;9.48;7.07;;;;;;;13.08;69.21;101791.75;3613764;39;20050;-68
2023/05/13 03:48:17;;;;;;;8.38;7.57;;;;;;;13.07;69.70;101789.16;3616355;39;20109;-68
2023/05/13 03:50:42;;;;;;;8.18;7.25;;;;;;;13.03;70.31;101788.44;3617960;39;20065;-69
2023/05/13 03:53:10;;;;;;;10.32;7.65;;;;;;;12.99;70.54;101794.97;3619641;39;20337;-68
2023/05/13 03:55:36;;;;;;;8.20;7.40;;;;;;;12.92;70.48;101796.28;3616810;39;20154;-68
2023/05/13 03:58:14;;;;;;;8.65;7.78;;;;;;;12.85;71.30;101789.50;3618358;39;20377;-69
2023/05/13 04:00:45;;;;;;;8.68;7.63;;;;;;;12.80;71.02;101788.88;3615787;39;20043;-69
2023/05/13 04:03:11;;;;;;;8.57;7.70;;;;;;;12.64;71.23;101768.13;3617070;39;20043;-67
2023/05/13 04:05:37;;;;;;;8.70;7.80;;;;;;;12.71;71.65;101787.56;3617250;39;20415;-67
2023/05/13 04:08:02;;;;;;;9.80;7.53;;;;;;;12.65;71.71;101782.50;3620764;39;20050;-67
2023/05/13 04:10:28;;;;;;;8.68;7.88;;;;;;;12.63;71.67;101781.72;3616155;39;20054;-66
2023/05/13 04:12:54;;;;;;;11.32;8.10;;;;;;;12.63;71.58;101779.91;3617769;39;20055;-67
2023/05/13 04:15:19;;;;;;;9.50;8.48;;;;;;;12.63;71.87;101785.28;3613506;39;20289;-66
2023/05/13 04:17:45;;;;;;;9.45;8.15;;;;;;;12.64;71.75;101789.72;3615163;39;20054;-67
2023/05/13 04:20:11;;;;;;;8.50;7.43;;;;;;;12.63;71.67;101789.81;3615818;39;20309;-67
2023/05/13 04:22:36;;;;;;;10.20;8.32;;;;;;;12.63;71.30;101789.81;3615394;39;20103;-67
2023/05/13 04:25:02;;;;;;;8.80;7.93;;;;;;;12.63;71.78;101793.38;3617926;39;20081;-67
2023/05/13 04:27:28;;;;;;;9.40;8.20;;;;;;;12.65;71.17;101788.75;3615264;39;20295;-67
2023/05/13 04:29:53;;;;;;;10.27;8.40;;;;;;;12.67;71.00;101792.25;3616781;39;20309;-67
2023/05/13 04:32:22;;;;;;;9.65;8.50;;;;;;;12.66;70.66;101795.91;3617401;39;20054;-67
2023/05/13 04:34:48;;;;;;;9.70;8.20;;;;;;;12.64;70.97;101794.25;3615778;39;20051;-67
2023/05/13 04:37:14;;;;;;;9.73;8.20;;;;;;;12.69;71.06;101805.66;3618700;39;20641;-67
2023/05/13 04:39:41;;;;;;;9.43;8.50;;;;;;;12.68;70.65;101793.13;3617685;39;20054;-67
2023/05/13 04:42:07;;;;;;;9.15;8.25;;;;;;;12.70;71.17;101793.91;3619045;39;20054;-66
2023/05/13 04:44:33;;;;;;;8.73;7.80;;;;;;;12.67;70.49;101796.78;3617125;39;20140;-66
2023/05/13 04:46:59;;;;;;;9.82;8.43;;;;;;;12.51;71.10;101769.78;3615183;39;20054;-66
2023/05/13 04:49:25;;;;;;;9.27;8.05;;;;;;;12.70;70.68;101808.25;3616626;39;20321;-66
2023/05/13 04:51:52;;;;;;;11.40;8.20;;;;;;;12.73;70.31;101801.84;3614957;39;20059;-66
2023/05/13 04:54:18;;;;;;;9.05;8.10;;;;;;;12.76;70.31;101807.94;3616729;39;20046;-66
2023/05/13 04:56:43;;;;;;;12.73;8.40;;;;;;;12.81;70.77;101809.50;3611277;39;20049;-65
2023/05/13 04:59:09;;;;;;;9.68;8.10;;;;;;;12.82;70.81;101813.97;3616534;39;20342;-66
2023/05/13 05:01:35;;;;;;;9.35;8.45;;;;;;;12.81;70.89;101810.34;3613019;39;20070;-65
2023/05/13 05:04:01;;;;;;;8.90;7.90;;;;;;;12.81;70.36;101806.78;3613695;39;20078;-66
2023/05/13 05:06:27;;;;;;;10.48;7.90;;;;;;;12.85;70.96;101811.94;3618097;39;20069;-66
2023/05/13 05:08:52;;;;;;;8.75;7.85;;;;;;;12.88;70.37;101817.19;3616062;39;20090;-66
2023/05/13 05:11:18;;;;;;;9.85;8.00;;;;;;;12.92;70.02;101823.28;3614472;39;20720;-66
2023/05/13 05:13:43;;;;;;;11.98;8.40;;;;;;;12.95;69.99;101818.56;3613041;39;20047;-66
2023/05/13 05:16:09;;;;;;;9.35;8.18;;;;;;;12.99;70.03;101824.66;3617593;39;20094;-66
2023/05/13 05:18:35;;;;;;;8.80;7.68;;;;;;;13.02;70.32;101822.66;3615021;39;20061;-67
2023/05/13 05:21:01;;;;;;;10.10;8.30;;;;;;;13.05;70.08;101837.81;3615052;39;20718;-67
2023/05/13 05:23:27;;;;;;;9.43;8.40;;;;;;;13.09;70.39;101825.88;3614937;39;20408;-66
2023/05/13 05:25:52;;;;;;;11.60;8.55;;;;;;;13.09;69.98;101833.97;3617561;39;20065;-67
2023/05/13 05:28:18;;;;;;;9.00;8.10;;;;;;;13.12;70.12;101828.41;3612596;39;20127;-69
2023/05/13 05:30:44;;;;;;;8.65;7.63;;;;;;;13.16;70.41;101830.00;3615956;39;20178;-66
2023/05/13 05:33:10;;;;;;;9.88;8.13;;;;;;;12.96;69.68;101790.63;3618395;39;20070;-66
2023/05/13 05:35:37;;;;;;;10.15;8.27;;;;;;;13.21;69.83;101836.00;3617503;39;20127;-67
2023/05/13 05:38:07;;;;;;;9.75;8.45;;;;;;;13.14;70.20;101831.03;3615899;39;20420;-67
2023/05/13 05:40:40;;;;;;;11.93;8.52;;;;;;;13.21;70.32;101840.53;3613416;39;20063;-67
2023/05/13 05:43:07;;;;;;;10.65;8.88;;;;;;;13.21;70.02;101844.09;3618530;39;20070;-67
2023/05/13 05:45:34;;;;;;;9.95;8.98;;;;;;;13.25;70.64;101844.81;3617727;39;20349;-67
2023/05/13 05:48:00;;;;;;;9.75;8.80;;;;;;;13.28;70.52;101846.47;3615628;39;20063;-67
2023/05/13 05:50:28;;;;;;;10.18;9.05;;;;;;;13.31;70.65;101849.00;3616126;39;20057;-67
2023/05/13 05:52:54;;;;;;;10.35;9.20;;;;;;;13.23;70.61;101834.09;3614143;39;20057;-66
2023/05/13 05:55:20;;;;;;;9.40;8.25;;;;;;;13.44;70.19;101850.91;3614679;39;20046;-67
2023/05/13 05:57:46;;;;;;;10.30;9.35;;;;;;;13.52;70.48;101846.91;3617227;39;20062;-67
2023/05/13 06:00:12;;;;;;;9.63;8.73;;;;;;;13.60;70.36;101850.88;3617699;39;20046;-67
2023/05/13 06:02:38;;;;;;;10.52;9.20;;;;;;;13.61;70.08;101844.56;3614367;39;20393;-66
2023/05/13 06:05:04;;;;;;;11.70;8.93;;;;;;;13.60;69.68;101848.19;3617361;39;20064;-66
2023/05/13 06:07:30;;;;;;;11.88;9.80;;;;;;;13.61;70.27;101849.94;3616512;39;20354;-66
2023/05/13 06:09:56;;;;;;;10.27;9.27;;;;;;;13.63;69.66;101845.31;3611537;39;20054;-66
2023/05/13 06:12:21;;;;;;;12.13;9.70;;;;;;;13.68;69.54;101851.31;3614012;39;20051;-67
2023/05/13 06:14:48;;;;;;;10.30;9.20;;;;;;;13.73;69.91;101844.78;3613429;39;20062;-67
2023/05/13 06:17:13;;;;;;;12.32;10.10;;;;;;;13.77;70.34;101851.75;3613275;39;20053;-67
2023/05/13 06:19:43;;;;;;;12.50;10.02;;;;;;;13.87;70.15;101859.22;3615781;39;20070;-67
2023/05/13 06:22:09;;;;;;;12.18;9.50;;;;;;;14.01;69.32;101865.63;3614829;39;20054;-67
2023/05/13 06:24:36;;;;;;;10.77;9.68;;;;;;;14.13;69.08;101856.78;3614253;39;20061;-67
2023/05/13 06:27:02;;;;;;;11.02;10.00;;;;;;;14.15;68.84;101863.84;3613007;39;20081;-67
2023/05/13 06:29:28;;;;;;;11.48;9.25;;;;;;;14.28;69.81;101863.13;3615952;39;20595;-66
2023/05/13 06:31:54;;;;;;;11.20;10.13;;;;;;;14.44;68.74;101858.50;3618896;39;20062;-67
2023/05/13 06:34:19;;;;;;;11.43;9.50;;;;;;;14.63;68.03;101859.13;3615582;39;20282;-67
2023/05/13 06:36:45;;;;;;;10.55;9.55;;;;;;;14.72;68.11;101862.25;3615774;39;20061;-66
2023/05/13 06:39:12;;;;;;;14.18;9.60;;;;;;;14.76;67.79;101869.19;3610663;39;20265;-66
2023/05/13 06:41:39;;;;;;;11.32;9.88;;;;;;;14.74;67.15;101868.41;3614121;39;20359;-66
2023/05/13 06:44:05;;;;;;;10.50;9.40;;;;;;;14.39;68.27;101806.50;3617293;39;20058;-66
2023/05/13 06:46:32;;;;;;;10.52;9.55;;;;;;;14.85;67.91;101866.78;3615907;39;20066;-66
2023/05/13 06:48:58;;;;;;;11.82;10.10;;;;;;;15.11;67.66;101868.78;3614207;39;20435;-66
2023/05/13 06:51:29;;;;;;;11.38;9.60;;;;;;;15.40;67.07;101878.59;3614317;39;20385;-66
2023/05/13 06:53:55;;;;;;;11.07;9.55;;;;;;;15.73;66.06;101874.66;3615026;39;20051;-67
2023/05/13 06:56:21;;;;;;;11.35;9.48;;;;;;;15.95;64.42;101869.56;3616178;39;20055;-66
2023/05/13 06:58:51;;;;;;;9.82;8.93;;;;;;;16.08;64.12;101869.59;3612952;39;20358;-66
2023/05/13 07:01:17;;;;;;;10.23;8.90;;;;;;;15.85;63.27;101846.72;3613210;39;20099;-66
2023/05/13 07:03:44;;;;;;;10.63;8.68;;;;;;;15.74;63.01;101846.59;3613107;39;20059;-65
2023/05/13 07:06:10;;;;;;;11.30;9.13;;;;;;;15.86;63.35;101882.84;3615800;39;20058;-66
2023/05/13 07:08:36;;;;;;;9.95;8.95;;;;;;;15.88;63.74;101881.78;3618994;39;20050;-65
2023/05/13 07:11:02;;;;;;;10.82;9.02;;;;;;;16.05;63.76;101877.03;3613163;39;20065;-67
2023/05/13 07:13:32;;;;;;;9.82;8.93;;;;;;;16.05;63.47;101874.31;3613661;39;20077;-67
2023/05/13 07:15:58;;;;;;;14.48;9.38;;;;;;;15.70;63.28;101826.97;3616735;39;20075;-66
2023/05/13 07:18:23;;;;;;;11.02;8.90;;;;;;;15.98;63.74;101866.63;3614147;39;20062;-67
2023/05/13 07:20:49;;;;;;;10.02;8.98;;;;;;;15.98;62.95;101882.00;3618251;39;20053;-66
2023/05/13 07:23:14;;;;;;;12.30;9.93;;;;;;;15.95;63.38;101882.22;3614964;39;20046;-66
2023/05/13 07:25:40;;;;;;;10.63;9.48;;;;;;;15.96;65.15;101876.72;3614550;39;20100;-66
2023/05/13 07:28:06;;;;;;;9.73;8.73;;;;;;;16.08;63.65;101880.44;3612244;39;20278;-67
2023/05/13 07:30:31;;;;;;;10.95;9.88;;;;;;;16.34;64.32;101875.06;3616434;39;20077;-67
2023/05/13 07:32:57;;;;;;;12.38;10.18;;;;;;;16.40;64.11;101853.78;3616154;39;20447;-66
2023/05/13 07:35:22;;;;;;;10.32;9.00;;;;;;;16.47;62.61;101855.09;3616489;39;20053;-67
2023/05/13 07:37:48;;;;;;;10.63;9.52;;;;;;;16.73;63.55;101871.38;3613122;39;20105;-66
2023/05/13 07:40:14;;;;;;;11.20;8.68;;;;;;;17.05;61.60;101876.38;3616498;39;20051;-67
2023/05/13 07:42:40;;;;;;;12.10;9.57;;;;;;;17.33;61.54;101873.38;3616851;39;20066;-67
2023/05/13 07:45:07;;;;;;;11.93;8.63;;;;;;;17.58;60.06;101864.28;3616945;39;20054;-67
2023/05/13 07:47:33;;;;;;;10.32;9.38;;;;;;;17.82;59.68;101877.94;3616701;39;20095;-66
2023/05/13 07:49:59;;;;;;;11.60;8.73;;;;;;;18.03;58.08;101878.13;3613045;39;20055;-66
2023/05/13 07:52:25;;;;;;;10.02;9.10;;;;;;;18.24;58.12;101878.34;3615509;39;20051;-66
2023/05/13 07:54:51;;;;;;;12.38;8.73;;;;;;;18.47;58.43;101883.84;3614515;39;20061;-66
2023/05/13 07:57:16;;;;;;;9.77;8.77;;;;;;;18.73;59.51;101879.94;3615304;39;20047;-66
2023/05/13 07:59:42;;;;;;;10.05;8.43;;;;;;;18.86;55.82;101884.41;3617912;39;20420;-67
2023/05/13 08:02:08;;;;;;;9.70;8.77;;;;;;;18.83;54.97;101881.94;3610323;39;20043;-69
2023/05/13 08:04:33;;;;;;;9.30;8.43;;;;;;;18.83;55.79;101879.22;3608749;39;20066;-66
2023/05/13 08:07:02;;;;;;;11.55;8.90;;;;;;;18.89;57.59;101876.00;3615063;39;20066;-67
2023/05/13 08:09:28;;;;;;;11.43;8.77;;;;;;;19.05;56.98;101873.75;3620080;39;20054;-66
2023/05/13 08:11:53;;;;;;;10.00;8.15;;;;;;;19.13;54.66;101882.19;3615472;39;20182;-67
2023/05/13 08:14:20;;;;;;;8.65;7.78;;;;;;;19.27;55.59;101878.34;3618836;39;20063;-66
2023/05/13 08:16:45;;;;;;;8.45;7.72;;;;;;;19.47;54.16;101884.88;3615789;39;20061;-66
2023/05/13 08:19:14;;;;;;;8.77;7.90;;;;;;;19.66;53.66;101876.06;3619725;39;20098;-67
2023/05/13 08:21:40;;;;;;;8.95;7.70;;;;;;;19.97;53.12;101881.66;3615125;39;20390;-66
2023/05/13 08:24:06;;;;;;;9.80;7.53;;;;;;;20.15;52.65;101883.69;3619712;39;20082;-66
2023/05/13 08:26:32;;;;;;;8.70;7.47;;;;;;;20.43;53.55;101881.31;3620923;39;20412;-67
2023/05/13 08:28:59;;;;;;;7.90;7.10;;;;;;;20.21;52.49;101829.56;3618987;39;20066;-67
2023/05/13 08:31:25;;;;;;;8.98;7.20;;;;;;;20.37;51.26;101835.44;3617478;39;20069;-68
2023/05/13 08:33:52;;;;;;;9.45;6.97;;;;;;;20.40;50.93;101852.41;3615361;39;20054;-66
2023/05/13 08:36:20;;;;;;;9.05;6.90;;;;;;;20.37;51.64;101836.28;3610809;39;20058;-67
2023/05/13 08:38:46;;;;;;;7.38;6.68;;;;;;;20.59;50.62;101879.00;3611182;39;20111;-67
2023/05/13 08:41:14;;;;;;;8.95;6.80;;;;;;;20.80;50.49;101878.09;3617890;39;20054;-67
2023/05/13 08:43:42;;;;;;;9.00;6.72;;;;;;;20.97;49.36;101882.97;3617470;39;20051;-65
2023/05/13 08:46:10;;;;;;;8.05;7.10;;;;;;;21.05;49.37;101883.13;3618878;39;20324;-66
2023/05/13 08:48:41;;;;;;;8.98;6.80;;;;;;;21.14;48.81;101875.09;3614639;39;20078;-65
2023/05/13 08:51:11;;;;;;;9.88;7.25;;;;;;;21.26;49.64;101871.28;3616390;39;20105;-67
2023/05/13 08:53:39;;;;;;;9.45;7.40;;;;;;;21.20;50.47;101866.34;3622798;39;20312;-66
2023/05/13 08:56:07;;;;;;;8.38;7.15;;;;;;;21.39;49.45;101879.25;3620766;39;20554;-67
2023/05/13 08:58:33;;;;;;;8.20;7.40;;;;;;;21.55;49.68;101877.72;3619382;39;20221;-66
2023/05/13 09:00:59;;;;;;;8.98;8.07;;;;;;;21.62;48.50;101858.00;3613317;39;20062;-67
2023/05/13 09:03:27;;;;;;;8.95;7.65;;;;;;;21.79;49.06;101868.25;3617547;39;20500;-67
2023/05/13 09:05:53;;;;;;;8.55;7.68;;;;;;;22.00;49.36;101868.97;3614825;39;20073;-67
2023/05/13 09:08:18;;;;;;;9.55;7.13;;;;;;;21.91;48.68;101845.19;3618779;39;20293;-67
2023/05/13 09:10:45;;;;;;;9.30;6.93;;;;;;;22.10;46.77;101870.84;3614082;39;20069;-67
2023/05/13 09:13:12;;;;;;;9.45;7.30;;;;;;;21.88;48.49;101818.09;3615681;39;20055;-67
2023/05/13 09:15:41;;;;;;;8.60;7.28;;;;;;;21.97;47.33;101835.53;3617511;39;20058;-67
2023/05/13 09:18:07;;;;;;;9.32;6.78;;;;;;;22.21;45.51;101871.59;3621184;39;20055;-67
2023/05/13 09:20:34;;;;;;;9.88;7.30;;;;;;;22.30;45.95;101880.81;3607950;39;20050;-67
2023/05/13 09:23:03;;;;;;;7.55;6.75;;;;;;;22.37;46.12;101875.63;3616326;39;20097;-67
2023/05/13 09:25:30;;;;;;;8.95;7.43;;;;;;;22.31;46.90;101829.63;3617661;39;20135;-67
2023/05/13 09:28:01;;;;;;;9.20;6.75;;;;;;;22.66;47.73;101861.84;3619364;39;20055;-67
2023/05/13 09:30:40;;;;;;;7.82;6.90;;;;;;;22.81;45.49;101865.00;3618915;39;20050;-67
2023/05/13 09:33:12;;;;;;;7.53;6.78;;;;;;;22.93;45.48;101859.19;3619325;39;20563;-67
2023/05/13 09:35:42;;;;;;;7.25;6.65;;;;;;;22.87;45.14;101821.38;3616984;39;20054;-68
2023/05/13 09:38:16;;;;;;;7.70;7.00;;;;;;;23.23;45.36;101859.06;3618647;39;20105;-67
2023/05/13 09:40:56;;;;;;;9.23;7.13;;;;;;;23.59;45.59;101860.00;3620424;39;20050;-67
2023/05/13 09:43:33;;;;;;;7.93;6.95;;;;;;;23.78;43.01;101865.38;3618718;39;20061;-67
2023/05/13 09:46:04;;;;;;;9.30;7.03;;;;;;;23.86;42.93;101862.72;3616548;39;21451;-67
2023/05/13 09:48:32;;;;;;;7.60;6.53;;;;;;;24.05;42.78;101866.34;3618545;39;20573;-67
2023/05/13 09:50:58;;;;;;;8.52;6.93;;;;;;;24.20;43.46;101862.00;3615789;39;20678;-66
2023/05/13 09:53:26;;;;;;;7.50;6.72;;;;;;;24.42;44.01;101860.66;3618995;39;20078;-67
2023/05/13 09:55:55;;;;;;;7.80;7.05;;;;;;;24.48;43.37;101856.38;3614544;39;20070;-67
2023/05/13 09:58:27;;;;;;;8.00;7.30;;;;;;;24.61;42.52;101845.84;3618435;39;20082;-68
2023/05/13 10:00:53;;;;;;;8.73;6.78;;;;;;;24.58;41.77;101861.78;3613952;39;20058;-67
2023/05/13 10:03:19;;;;;;;8.90;6.70;;;;;;;24.76;42.21;101855.19;3616802;39;20051;-67
2023/05/13 10:05:47;;;;;;;7.97;6.90;;;;;;;24.78;41.71;101853.16;3613658;39;20055;-67
2023/05/13 10:08:14;;;;;;;7.22;6.22;;;;;;;24.60;41.50;101810.25;3616872;39;20059;-68
2023/05/13 10:10:44;;;;;;;7.82;6.22;;;;;;;24.89;42.14;101846.50;3614094;39;20051;-67
2023/05/13 10:13:14;;;;;;;7.10;6.40;;;;;;;24.75;40.16;101812.25;3620335;39;20315;-67
2023/05/13 10:15:54;;;;;;;6.97;6.22;;;;;;;24.99;40.14;101839.00;3619592;39;20309;-68
2023/05/13 10:18:22;;;;;;;6.13;5.53;;;;;;;25.20;42.23;101837.75;3616855;39;20061;-67
2023/05/13 10:20:51;;;;;;;6.80;5.90;;;;;;;25.24;40.72;101841.88;3615312;39;20059;-67
2023/05/13 10:23:19;;;;;;;6.90;6.20;;;;;;;25.34;40.42;101839.00;3616624;39;20056;-67
2023/05/13 10:25:47;;;;;;;7.35;5.82;;;;;;;25.54;40.61;101832.19;3616960;39;20167;-66
2023/05/13 10:28:14;;;;;;;8.30;5.72;;;;;;;25.62;39.94;101814.78;3614315;39;20054;-67
2023/05/13 10:30:41;;;;;;;6.55;5.40;;;;;;;25.74;39.02;101831.88;3613897;39;20090;-67
2023/05/13 10:33:07;;;;;;;7.03;5.45;;;;;;;25.77;37.90;101834.28;3616044;39;20289;-66
2023/05/13 10:35:39;;;;;;;6.18;5.57;;;;;;;25.79;37.96;101835.00;3617555;39;20065;-67
2023/05/13 10:39:07;;;;;;;6.47;5.87;;;;;;;25.88;38.00;101834.84;3611739;39;20046;-67
2023/05/13 10:42:13;;;;;;;6.05;4.88;;;;;;;26.02;37.13;101830.53;3606431;39;20278;-67
2023/05/13 10:44:39;;;;;;;5.95;5.22;;;;;;;26.14;38.07;101829.16;3616282;39;20078;-68
2023/05/13 10:47:08;;;;;;;9.15;5.43;;;;;;;26.24;37.54;101833.66;3621260;39;20084;-68
2023/05/13 10:49:35;;;;;;;6.40;4.93;;;;;;;26.29;38.45;101825.69;3615701;39;20135;-67
2023/05/13 10:52:14;;;;;;;6.72;4.50;;;;;;;26.23;36.55;101826.41;3612693;39;20071;-67
2023/05/13 10:54:41;;;;;;;3.90;3.58;;;;;;;26.49;35.76;101829.00;3610980;39;20060;-67
2023/05/13 10:57:08;;;;;;;8.40;4.35;;;;;;;26.50;34.60;101822.44;3621163;39;20470;-67
2023/05/13 10:59:36;;;;;;;5.05;4.10;;;;;;;26.57;36.45;101824.31;3616917;39;20047;-68
2023/05/13 11:02:23;;;;;;;6.72;4.07;;;;;;;26.66;35.55;101827.06;3615710;39;20051;-67
2023/05/13 11:04:59;;;;;;;6.90;3.95;;;;;;;26.76;37.38;101817.53;3616558;39;20086;-67
2023/05/13 11:07:28;;;;;;;4.22;3.83;;;;;;;26.90;34.51;101824.22;3614409;39;20098;-67
2023/05/13 11:09:54;;;;;;;5.18;4.43;;;;;;;26.98;34.86;101818.66;3610693;39;20070;-68
2023/05/13 11:12:20;;;;;;;5.03;3.90;;;;;;;27.06;33.96;101813.13;3619775;39;20118;-67
2023/05/13 11:14:46;;;;;;;5.55;3.60;;;;;;;27.14;34.97;101817.78;3618878;39;20062;-67
2023/05/13 11:17:11;;;;;;;5.45;3.70;;;;;;;26.76;33.56;101816.69;3613329;39;20058;-67
2023/05/13 11:19:45;;;;;;;5.75;3.50;;;;;;;26.75;34.35;101810.31;3612508;39;20047;-67
2023/05/13 11:22:16;;;;;;;4.35;3.40;;;;;;;26.96;31.82;101801.44;3615141;39;20062;-67
2023/05/13 11:25:07;;;;;;;5.78;3.15;;;;;;;27.10;32.40;101791.53;3612524;39;20038;-67
2023/05/13 11:27:42;;;;;;;5.15;3.40;;;;;;;27.44;33.40;101782.06;3612490;39;20500;-67